sensor_id;sensor_type;location;lat;lon;timestamp;pressure;altitude;pressure_sealevel;temperature;humidity
18436;BME280;9346;52.006;4.720;2023-02-20T00:00:08;102429.34;;;7.28;100.00
18436;BME280;9346;52.006;4.720;2023-02-20T00:02:36;102423.00;;;7.28;100.00
18436;BME280;9346;52.006;4.720;2023-02-20T00:05:03;102417.31;;;7.29;100.00
18436;BME280;9346;52.006;4.720;2023-02-20T00:07:30;102419.19;;;7.29;100.00
18436;BME280;9346;52.006;4.720;2023-02-20T00:09:57;102413.09;;;7.27;100.00
18436;BME280;9346;52.006;4.720;2023-02-20T00:12:26;102415.19;;;7.25;100.00
18436;BME280;9346;52.006;4.720;2023-02-20T00:14:53;102416.06;;;7.25;100.00
18436;BME280;9346;52.006;4.720;2023-02-20T00:17:20;102414.34;;;7.24;100.00
18436;BME280;9346;52.006;4.720;2023-02-20T00:19:46;102413.31;;;7.25;100.00
18436;BME280;9346;52.006;4.720;2023-02-20T00:22:13;102397.91;;;7.24;100.00
18436;BME280;9346;52.006;4.720;2023-02-20T00:24:41;102402.56;;;7.24;100.00
18436;BME280;9346;52.006;4.720;2023-02-20T00:27:08;102392.63;;;7.23;100.00
18436;BME280;9346;52.006;4.720;2023-02-20T00:29:37;102392.25;;;7.19;100.00
18436;BME280;9346;52.006;4.720;2023-02-20T00:32:04;102385.09;;;7.18;100.00
18436;BME280;9346;52.006;4.720;2023-02-20T00:34:31;102380.03;;;7.15;100.00
18436;BME280;9346;52.006;4.720;2023-02-20T00:36:58;102377.28;;;7.15;100.00
18436;BME280;9346;52.006;4.720;2023-02-20T00:39:25;102374.75;;;7.14;100.00
18436;BME280;9346;52.006;4.720;2023-02-20T00:41:52;102382.13;;;7.13;100.00
18436;BME280;9346;52.006;4.720;2023-02-20T00:44:20;102366.75;;;7.12;100.00
18436;BME280;9346;52.006;4.720;2023-02-20T00:46:48;102375.81;;;7.13;100.00
18436;BME280;9346;52.006;4.720;2023-02-20T00:49:15;102377.72;;;7.12;100.00
18436;BME280;9346;52.006;4.720;2023-02-20T00:51:42;102380.47;;;7.12;100.00
18436;BME280;9346;52.006;4.720;2023-02-20T00:54:09;102375.19;;;7.11;100.00
18436;BME280;9346;52.006;4.720;2023-02-20T00:56:36;102367.78;;;7.11;100.00
18436;BME280;9346;52.006;4.720;2023-02-20T00:59:03;102367.19;;;7.09;100.00
18436;BME280;9346;52.006;4.720;2023-02-20T01:01:30;102361.72;;;7.09;100.00
18436;BME280;9346;52.006;4.720;2023-02-20T01:03:59;102361.72;;;7.09;100.00
18436;BME280;9346;52.006;4.720;2023-02-20T01:06:26;102361.72;;;7.09;100.00
18436;BME280;9346;52.006;4.720;2023-02-20T01:08:53;102366.13;;;7.10;100.00
18436;BME280;9346;52.006;4.720;2023-02-20T01:11:20;102366.75;;;7.12;100.00
18436;BME280;9346;52.006;4.720;2023-02-20T01:13:47;102358.53;;;7.12;100.00
18436;BME280;9346;52.006;4.720;2023-02-20T01:16:13;102364.63;;;7.14;100.00
18436;BME280;9346;52.006;4.720;2023-02-20T01:18:40;102352.84;;;7.14;100.00
18436;BME280;9346;52.006;4.720;2023-02-20T01:21:09;102329.84;;;7.15;100.00
18436;BME280;9346;52.006;4.720;2023-02-20T01:23:36;102335.13;;;7.16;100.00
18436;BME280;9346;52.006;4.720;2023-02-20T01:26:03;102326.69;;;7.18;100.00
18436;BME280;9346;52.006;4.720;2023-02-20T01:28:30;102330.88;;;7.20;100.00
18436;BME280;9346;52.006;4.720;2023-02-20T01:30:57;102324.97;;;7.23;100.00
18436;BME280;9346;52.006;4.720;2023-02-20T01:33:24;102313.56;;;7.26;100.00
18436;BME280;9346;52.006;4.720;2023-02-20T01:35:52;102314.00;;;7.30;100.00
18436;BME280;9346;52.006;4.720;2023-02-20T01:38:20;102307.22;;;7.32;100.00
18436;BME280;9346;52.006;4.720;2023-02-20T01:40:48;102307.84;;;7.34;100.00
18436;BME280;9346;52.006;4.720;2023-02-20T01:43:15;102294.13;;;7.34;100.00
18436;BME280;9346;52.006;4.720;2023-02-20T01:45:43;102284.66;;;7.37;100.00
18436;BME280;9346;52.006;4.720;2023-02-20T01:48:18;102286.31;;;7.38;100.00
18436;BME280;9346;52.006;4.720;2023-02-20T01:50:45;102282.50;;;7.39;100.00
18436;BME280;9346;52.006;4.720;2023-02-20T01:53:18;102285.88;;;7.41;100.00
18436;BME280;9346;52.006;4.720;2023-02-20T01:55:50;102298.09;;;7.45;100.00
18436;BME280;9346;52.006;4.720;2023-02-20T01:58:21;102283.72;;;7.49;100.00
18436;BME280;9346;52.006;4.720;2023-02-20T02:00:49;102284.75;;;7.55;100.00
18436;BME280;9346;52.006;4.720;2023-02-20T02:03:18;102272.09;;;7.60;100.00
18436;BME280;9346;52.006;4.720;2023-02-20T02:05:50;102273.31;;;7.64;100.00
18436;BME280;9346;52.006;4.720;2023-02-20T02:08:20;102268.84;;;7.70;100.00
18436;BME280;9346;52.006;4.720;2023-02-20T02:10:53;102269.47;;;7.72;100.00
18436;BME280;9346;52.006;4.720;2023-02-20T02:13:22;102265.22;;;7.76;100.00
18436;BME280;9346;52.006;4.720;2023-02-20T02:15:51;102269.41;;;7.78;100.00
18436;BME280;9346;52.006;4.720;2023-02-20T02:18:33;102260.53;;;7.83;100.00
18436;BME280;9346;52.006;4.720;2023-02-20T02:21:21;102245.13;;;7.82;100.00
18436;BME280;9346;52.006;4.720;2023-02-20T02:27:08;102254.16;;;7.89;100.00
18436;BME280;9346;52.006;4.720;2023-02-20T02:32:52;102248.00;;;7.93;100.00
18436;BME280;9346;52.006;4.720;2023-02-20T02:38:24;102241.22;;;7.96;100.00
18436;BME280;9346;52.006;4.720;2023-02-20T02:41:00;102248.16;;;7.98;100.00
18436;BME280;9346;52.006;4.720;2023-02-20T02:43:36;102246.47;;;7.97;100.00
18436;BME280;9346;52.006;4.720;2023-02-20T02:46:08;102249.63;;;8.01;100.00
18436;BME280;9346;52.006;4.720;2023-02-20T02:48:44;102241.41;;;8.01;100.00
18436;BME280;9346;52.006;4.720;2023-02-20T02:51:16;102244.16;;;8.01;100.00
18436;BME280;9346;52.006;4.720;2023-02-20T02:54:07;102243.47;;;8.05;100.00
18436;BME280;9346;52.006;4.720;2023-02-20T02:56:35;102243.00;;;8.08;100.00
18436;BME280;9346;52.006;4.720;2023-02-20T02:59:03;102245.75;;;8.08;100.00
18436;BME280;9346;52.006;4.720;2023-02-20T03:01:32;102257.34;;;8.10;100.00
18436;BME280;9346;52.006;4.720;2023-02-20T03:04:03;102248.03;;;8.11;100.00
18436;BME280;9346;52.006;4.720;2023-02-20T03:06:35;102238.75;;;8.12;100.00
18436;BME280;9346;52.006;4.720;2023-02-20T03:09:07;102232.19;;;8.13;100.00
18436;BME280;9346;52.006;4.720;2023-02-20T03:11:37;102236.38;;;8.16;100.00
18436;BME280;9346;52.006;4.720;2023-02-20T03:14:09;102240.84;;;8.17;100.00
18436;BME280;9346;52.006;4.720;2023-02-20T03:16:59;102229.41;;;8.20;100.00
18436;BME280;9346;52.006;4.720;2023-02-20T03:19:32;102234.44;;;8.23;100.00
18436;BME280;9346;52.006;4.720;2023-02-20T03:22:06;102231.47;;;8.24;100.00
18436;BME280;9346;52.006;4.720;2023-02-20T03:24:39;102232.34;;;8.25;100.00
18436;BME280;9346;52.006;4.720;2023-02-20T03:27:23;102232.09;;;8.26;100.00
18436;BME280;9346;52.006;4.720;2023-02-20T03:29:54;102244.53;;;8.29;100.00
18436;BME280;9346;52.006;4.720;2023-02-20T03:32:25;102238.38;;;8.33;100.00
18436;BME280;9346;52.006;4.720;2023-02-20T03:35:10;102227.16;;;8.35;100.00
18436;BME280;9346;52.006;4.720;2023-02-20T03:37:57;102238.53;;;8.38;100.00
18436;BME280;9346;52.006;4.720;2023-02-20T03:40:45;102236.41;;;8.40;100.00
18436;BME280;9346;52.006;4.720;2023-02-20T03:43:30;102226.03;;;8.42;100.00
18436;BME280;9346;52.006;4.720;2023-02-20T03:45:59;102216.50;;;8.45;100.00
18436;BME280;9346;52.006;4.720;2023-02-20T03:48:32;102225.13;;;8.48;100.00
18436;BME280;9346;52.006;4.720;2023-02-20T03:51:00;102222.38;;;8.48;100.00
18436;BME280;9346;52.006;4.720;2023-02-20T03:53:28;102210.09;;;8.51;100.00
18436;BME280;9346;52.006;4.720;2023-02-20T03:56:01;102217.66;;;8.55;100.00
18436;BME280;9346;52.006;4.720;2023-02-20T03:58:32;102209.19;;;8.57;100.00
18436;BME280;9346;52.006;4.720;2023-02-20T04:01:02;102203.69;;;8.57;100.00
18436;BME280;9346;52.006;4.720;2023-02-20T04:03:34;102205.38;;;8.58;100.00
18436;BME280;9346;52.006;4.720;2023-02-20T04:06:05;102205.75;;;8.61;100.00
18436;BME280;9346;52.006;4.720;2023-02-20T04:08:37;102208.28;;;8.63;100.00
18436;BME280;9346;52.006;4.720;2023-02-20T04:11:09;102216.06;;;8.66;100.00
18436;BME280;9346;52.006;4.720;2023-02-20T04:13:37;102210.34;;;8.67;100.00
18436;BME280;9346;52.006;4.720;2023-02-20T04:16:06;102205.44;;;8.69;100.00
18436;BME280;9346;52.006;4.720;2023-02-20T04:18:33;102202.25;;;8.72;100.00
18436;BME280;9346;52.006;4.720;2023-02-20T04:21:04;102205.22;;;8.71;100.00
18436;BME280;9346;52.006;4.720;2023-02-20T04:23:37;102208.59;;;8.73;100.00
18436;BME280;9346;52.006;4.720;2023-02-20T04:26:10;102192.09;;;8.73;100.00
18436;BME280;9346;52.006;4.720;2023-02-20T04:28:38;102194.63;;;8.74;100.00
18436;BME280;9346;52.006;4.720;2023-02-20T04:31:06;102199.03;;;8.75;100.00
18436;BME280;9346;52.006;4.720;2023-02-20T04:33:33;102192.50;;;8.76;100.00
18436;BME280;9346;52.006;4.720;2023-02-20T04:36:00;102200.50;;;8.78;100.00
18436;BME280;9346;52.006;4.720;2023-02-20T04:38:27;102204.06;;;8.78;100.00
18436;BME280;9346;52.006;4.720;2023-02-20T04:40:54;102203.03;;;8.79;100.00
18436;BME280;9346;52.006;4.720;2023-02-20T04:43:23;102200.03;;;8.81;100.00
18436;BME280;9346;52.006;4.720;2023-02-20T04:45:50;102203.63;;;8.81;100.00
18436;BME280;9346;52.006;4.720;2023-02-20T04:48:16;102203.63;;;8.81;100.00
18436;BME280;9346;52.006;4.720;2023-02-20T04:50:43;102203.63;;;8.81;100.00
18436;BME280;9346;52.006;4.720;2023-02-20T04:53:10;102206.13;;;8.83;100.00
18436;BME280;9346;52.006;4.720;2023-02-20T04:55:37;102208.03;;;8.82;100.00
18436;BME280;9346;52.006;4.720;2023-02-20T04:58:05;102205.28;;;8.82;100.00
18436;BME280;9346;52.006;4.720;2023-02-20T05:00:33;102204.25;;;8.83;100.00
18436;BME280;9346;52.006;4.720;2023-02-20T05:03:00;102200.41;;;8.84;100.00
18436;BME280;9346;52.006;4.720;2023-02-20T05:05:28;102193.25;;;8.83;100.00
18436;BME280;9346;52.006;4.720;2023-02-20T05:07:57;102192.41;;;8.83;100.00
18436;BME280;9346;52.006;4.720;2023-02-20T05:10:25;102197.66;;;8.84;100.00
18436;BME280;9346;52.006;4.720;2023-02-20T05:12:53;102194.06;;;8.84;100.00
18436;BME280;9346;52.006;4.720;2023-02-20T05:15:21;102195.75;;;8.85;100.00
18436;BME280;9346;52.006;4.720;2023-02-20T05:17:50;102206.75;;;8.85;100.00
18436;BME280;9346;52.006;4.720;2023-02-20T05:20:18;102203.38;;;8.83;100.00
18436;BME280;9346;52.006;4.720;2023-02-20T05:22:45;102202.31;;;8.84;100.00
18436;BME280;9346;52.006;4.720;2023-02-20T05:25:12;102210.31;;;8.85;100.00
18436;BME280;9346;52.006;4.720;2023-02-20T05:27:40;102202.69;;;8.87;100.00
18436;BME280;9346;52.006;4.720;2023-02-20T05:30:09;102205.69;;;8.86;100.00
18436;BME280;9346;52.006;4.720;2023-02-20T05:32:36;102202.94;;;8.86;100.00
18436;BME280;9346;52.006;4.720;2023-02-20T05:35:05;102205.44;;;8.87;100.00
18436;BME280;9346;52.006;4.720;2023-02-20T05:37:32;102209.88;;;8.88;100.00
18436;BME280;9346;52.006;4.720;2023-02-20T05:39:59;102207.13;;;8.88;100.00
18436;BME280;9346;52.006;4.720;2023-02-20T05:42:26;102218.09;;;8.88;100.00
18436;BME280;9346;52.006;4.720;2023-02-20T05:44:53;102212.38;;;8.90;100.00
18436;BME280;9346;52.006;4.720;2023-02-20T05:47:20;102209.41;;;8.91;100.00
18436;BME280;9346;52.006;4.720;2023-02-20T05:49:47;102211.94;;;8.93;100.00
18436;BME280;9346;52.006;4.720;2023-02-20T05:52:15;102193.78;;;8.92;100.00
18436;BME280;9346;52.006;4.720;2023-02-20T05:54:45;102201.16;;;8.91;100.00
18436;BME280;9346;52.006;4.720;2023-02-20T05:57:14;102198.66;;;8.90;100.00
18436;BME280;9346;52.006;4.720;2023-02-20T05:59:41;102203.09;;;8.91;100.00
18436;BME280;9346;52.006;4.720;2023-02-20T06:02:08;102205.84;;;8.91;100.00
18436;BME280;9346;52.006;4.720;2023-02-20T06:04:35;102205.84;;;8.91;100.00
18436;BME280;9346;52.006;4.720;2023-02-20T06:07:02;102206.66;;;8.91;100.00
18436;BME280;9346;52.006;4.720;2023-02-20T06:09:31;102202.88;;;8.92;100.00
18436;BME280;9346;52.006;4.720;2023-02-20T06:11:58;102187.41;;;8.91;100.00
18436;BME280;9346;52.006;4.720;2023-02-20T06:14:26;102185.13;;;8.88;100.00
18436;BME280;9346;52.006;4.720;2023-02-20T06:16:53;102190.41;;;8.90;100.00
18436;BME280;9346;52.006;4.720;2023-02-20T06:19:23;102192.91;;;8.91;100.00
18436;BME280;9346;52.006;4.720;2023-02-20T06:21:51;102199.50;;;8.90;100.00
18436;BME280;9346;52.006;4.720;2023-02-20T06:24:19;102187.19;;;8.93;100.00
18436;BME280;9346;52.006;4.720;2023-02-20T06:26:48;102192.91;;;8.91;100.00
18436;BME280;9346;52.006;4.720;2023-02-20T06:29:15;102199.03;;;8.93;100.00
18436;BME280;9346;52.006;4.720;2023-02-20T06:31:42;102199.88;;;8.94;100.00
18436;BME280;9346;52.006;4.720;2023-02-20T06:34:09;102200.13;;;8.92;100.00
18436;BME280;9346;52.006;4.720;2023-02-20T06:36:38;102192.69;;;8.93;100.00
18436;BME280;9346;52.006;4.720;2023-02-20T06:39:07;102200.13;;;8.92;100.00
18436;BME280;9346;52.006;4.720;2023-02-20T06:41:34;102201.78;;;8.93;100.00
18436;BME280;9346;52.006;4.720;2023-02-20T06:44:04;102203.44;;;8.94;100.00
18436;BME280;9346;52.006;4.720;2023-02-20T06:46:31;102207.88;;;8.95;100.00
18436;BME280;9346;52.006;4.720;2023-02-20T06:48:58;102207.88;;;8.95;100.00
18436;BME280;9346;52.006;4.720;2023-02-20T06:51:26;102203.00;;;8.97;100.00
18436;BME280;9346;52.006;4.720;2023-02-20T06:53:53;102203.00;;;8.97;100.00
18436;BME280;9346;52.006;4.720;2023-02-20T06:56:26;102197.50;;;8.97;100.00
18436;BME280;9346;52.006;4.720;2023-02-20T06:58:54;102190.91;;;8.98;100.00
18436;BME280;9346;52.006;4.720;2023-02-20T07:01:24;102201.91;;;8.98;100.00
18436;BME280;9346;52.006;4.720;2023-02-20T07:03:53;102209.34;;;8.98;100.00
18436;BME280;9346;52.006;4.720;2023-02-20T07:06:20;102201.91;;;8.98;100.00
18436;BME280;9346;52.006;4.720;2023-02-20T07:08:48;102196.41;;;8.98;100.00
18436;BME280;9346;52.006;4.720;2023-02-20T07:11:16;102199.16;;;8.98;100.00
18436;BME280;9346;52.006;4.720;2023-02-20T07:13:43;102195.38;;;8.99;100.00
18436;BME280;9346;52.006;4.720;2023-02-20T07:16:10;102200.00;;;8.99;100.00
18436;BME280;9346;52.006;4.720;2023-02-20T07:18:39;102198.94;;;9.00;100.00
18436;BME280;9346;52.006;4.720;2023-02-20T07:21:06;102200.63;;;9.01;100.00
18436;BME280;9346;52.006;4.720;2023-02-20T07:23:33;102207.81;;;9.02;100.00
18436;BME280;9346;52.006;4.720;2023-02-20T07:26:00;102216.03;;;9.02;100.00
18436;BME280;9346;52.006;4.720;2023-02-20T07:28:27;102203.16;;;9.02;100.00
18436;BME280;9346;52.006;4.720;2023-02-20T07:30:54;102200.19;;;9.04;100.00
18436;BME280;9346;52.006;4.720;2023-02-20T07:33:21;102202.47;;;9.07;100.00
18436;BME280;9346;52.006;4.720;2023-02-20T07:35:49;102199.47;;;9.08;100.00
18436;BME280;9346;52.006;4.720;2023-02-20T07:38:16;102203.91;;;9.09;100.00
18436;BME280;9346;52.006;4.720;2023-02-20T07:40:43;102203.91;;;9.09;100.00
18436;BME280;9346;52.006;4.720;2023-02-20T07:43:10;102207.47;;;9.10;100.00
18436;BME280;9346;52.006;4.720;2023-02-20T07:45:37;102202.22;;;9.08;100.00
18436;BME280;9346;52.006;4.720;2023-02-20T07:48:05;102209.16;;;9.11;100.00
18436;BME280;9346;52.006;4.720;2023-02-20T07:50:32;102207.22;;;9.11;100.00
18436;BME280;9346;52.006;4.720;2023-02-20T07:53:01;102210.59;;;9.13;100.00
18436;BME280;9346;52.006;4.720;2023-02-20T07:55:27;102219.47;;;9.16;100.00
18436;BME280;9346;52.006;4.720;2023-02-20T07:57:54;102209.28;;;9.16;100.00
18436;BME280;9346;52.006;4.720;2023-02-20T08:00:23;102212.88;;;9.17;100.00
18436;BME280;9346;52.006;4.720;2023-02-20T08:02:50;102211.59;;;9.19;100.00
18436;BME280;9346;52.006;4.720;2023-02-20T08:05:17;102208.59;;;9.21;100.00
18436;BME280;9346;52.006;4.720;2023-02-20T08:07:45;102220.81;;;9.25;100.00
18436;BME280;9346;52.006;4.720;2023-02-20T08:10:16;102211.50;;;9.26;100.00
18436;BME280;9346;52.006;4.720;2023-02-20T08:12:44;102218.44;;;9.28;100.00
18436;BME280;9346;52.006;4.720;2023-02-20T08:15:11;102218.22;;;9.30;100.00
18436;BME280;9346;52.006;4.720;2023-02-20T08:17:38;102211.63;;;9.31;100.00
18436;BME280;9346;52.006;4.720;2023-02-20T08:20:07;102220.50;;;9.33;100.00
18436;BME280;9346;52.006;4.720;2023-02-20T08:22:34;102215.84;;;9.33;100.00
18436;BME280;9346;52.006;4.720;2023-02-20T08:25:01;102218.38;;;9.35;100.00
18436;BME280;9346;52.006;4.720;2023-02-20T08:27:31;102212.63;;;9.36;100.00
18436;BME280;9346;52.006;4.720;2023-02-20T08:30:03;102206.41;;;9.41;100.00
18436;BME280;9346;52.006;4.720;2023-02-20T08:32:30;102212.13;;;9.39;100.00
18436;BME280;9346;52.006;4.720;2023-02-20T08:34:57;102216.59;;;9.40;100.00
18436;BME280;9346;52.006;4.720;2023-02-20T08:37:24;102215.28;;;9.43;100.00
18436;BME280;9346;52.006;4.720;2023-02-20T08:39:51;102218.63;;;9.45;100.00
18436;BME280;9346;52.006;4.720;2023-02-20T08:42:18;102208.22;;;9.47;100.00
18436;BME280;9346;52.006;4.720;2023-02-20T08:44:46;102209.31;;;9.46;100.00
18436;BME280;9346;52.006;4.720;2023-02-20T08:47:14;102213.97;;;9.45;100.00
18436;BME280;9346;52.006;4.720;2023-02-20T08:49:45;102219.69;;;9.44;100.00
18436;BME280;9346;52.006;4.720;2023-02-20T08:52:12;102210.63;;;9.43;100.00
18436;BME280;9346;52.006;4.720;2023-02-20T08:54:39;102205.59;;;9.40;100.00
18436;BME280;9346;52.006;4.720;2023-02-20T08:57:09;102218.03;;;9.43;100.00
18436;BME280;9346;52.006;4.720;2023-02-20T08:59:36;102216.13;;;9.43;100.00
18436;BME280;9346;52.006;4.720;2023-02-20T09:02:05;102209.53;;;9.44;100.00
18436;BME280;9346;52.006;4.720;2023-02-20T09:04:31;102195.56;;;9.46;100.00
18436;BME280;9346;52.006;4.720;2023-02-20T09:06:58;102172.47;;;9.47;100.00
18436;BME280;9346;52.006;4.720;2023-02-20T09:09:25;102184.94;;;9.49;100.00
18436;BME280;9346;52.006;4.720;2023-02-20T09:11:54;102191.88;;;9.52;100.00
18436;BME280;9346;52.006;4.720;2023-02-20T09:14:21;102194.75;;;9.57;100.00
18436;BME280;9346;52.006;4.720;2023-02-20T09:16:50;102190.94;;;9.58;100.00
18436;BME280;9346;52.006;4.720;2023-02-20T09:19:19;102193.22;;;9.61;100.00
18436;BME280;9346;52.006;4.720;2023-02-20T09:21:48;102198.72;;;9.61;100.00
18436;BME280;9346;52.006;4.720;2023-02-20T09:24:15;102195.72;;;9.62;100.00
18436;BME280;9346;52.006;4.720;2023-02-20T09:26:42;102194.19;;;9.66;100.00
18436;BME280;9346;52.006;4.720;2023-02-20T09:29:09;102199.44;;;9.68;100.00
18436;BME280;9346;52.006;4.720;2023-02-20T09:31:36;102191.78;;;9.70;100.00
18436;BME280;9346;52.006;4.720;2023-02-20T09:34:03;102201.25;;;9.74;100.00
18436;BME280;9346;52.006;4.720;2023-02-20T09:36:32;102203.53;;;9.77;100.00
18436;BME280;9346;52.006;4.720;2023-02-20T09:38:59;102204.75;;;9.81;100.00
18436;BME280;9346;52.006;4.720;2023-02-20T09:41:37;102222.91;;;9.82;100.00
18436;BME280;9346;52.006;4.720;2023-02-20T09:44:12;102210.34;;;9.86;100.00
18436;BME280;9346;52.006;4.720;2023-02-20T09:46:43;102204.84;;;9.86;100.00
18436;BME280;9346;52.006;4.720;2023-02-20T09:49:12;102202.34;;;9.84;100.00
18436;BME280;9346;52.006;4.720;2023-02-20T09:51:44;102208.22;;;9.88;100.00
18436;BME280;9346;52.006;4.720;2023-02-20T09:54:20;102203.31;;;9.90;100.00
18436;BME280;9346;52.006;4.720;2023-02-20T09:56:52;102196.25;;;9.94;100.00
18436;BME280;9346;52.006;4.720;2023-02-20T09:59:23;102208.72;;;9.96;100.00
18436;BME280;9346;52.006;4.720;2023-02-20T10:01:53;102191.72;;;9.99;100.00
18436;BME280;9346;52.006;4.720;2023-02-20T10:04:24;102187.53;;;9.97;100.00
18436;BME280;9346;52.006;4.720;2023-02-20T10:07:01;102193.28;;;9.95;100.00
18436;BME280;9346;52.006;4.720;2023-02-20T10:09:33;102194.13;;;9.96;100.00
18436;BME280;9346;52.006;4.720;2023-02-20T10:12:08;102190.06;;;9.98;100.00
18436;BME280;9346;52.006;4.720;2023-02-20T10:14:52;102193.38;;;10.00;100.00
18436;BME280;9346;52.006;4.720;2023-02-20T10:17:28;102199.13;;;9.99;100.00
18436;BME280;9346;52.006;4.720;2023-02-20T10:20:02;102196.59;;;9.97;100.00
18436;BME280;9346;52.006;4.720;2023-02-20T10:22:45;102190.63;;;10.00;100.00
18436;BME280;9346;52.006;4.720;2023-02-20T10:25:19;102204.41;;;10.00;100.00
18436;BME280;9346;52.006;4.720;2023-02-20T10:27:53;102195.31;;;10.00;100.00
18436;BME280;9346;52.006;4.720;2023-02-20T10:30:28;102190.88;;;9.99;100.00
18436;BME280;9346;52.006;4.720;2023-02-20T10:33:00;102192.31;;;10.01;100.00
18436;BME280;9346;52.006;4.720;2023-02-20T10:35:34;102199.25;;;10.04;100.00
18436;BME280;9346;52.006;4.720;2023-02-20T10:38:07;102207.09;;;10.07;100.00
18436;BME280;9346;52.006;4.720;2023-02-20T10:40:37;102190.56;;;10.07;100.00
18436;BME280;9346;52.006;4.720;2023-02-20T10:43:10;102186.72;;;10.08;100.00
18436;BME280;9346;52.006;4.720;2023-02-20T10:45:46;102185.66;;;10.09;100.00
18436;BME280;9346;52.006;4.720;2023-02-20T10:48:15;102184.59;;;10.10;100.00
18436;BME280;9346;52.006;4.720;2023-02-20T10:50:46;102198.13;;;10.11;100.00
18436;BME280;9346;52.006;4.720;2023-02-20T10:53:25;102210.78;;;10.12;100.00
18436;BME280;9346;52.006;4.720;2023-02-20T10:56:00;102206.47;;;10.16;100.00
18436;BME280;9346;52.006;4.720;2023-02-20T10:58:32;102198.81;;;10.18;100.00
18436;BME280;9346;52.006;4.720;2023-02-20T11:01:02;102176.56;;;10.20;100.00
18436;BME280;9346;52.006;4.720;2023-02-20T11:03:37;102165.31;;;10.21;100.00
18436;BME280;9346;52.006;4.720;2023-02-20T11:06:09;102183.25;;;10.24;100.00
18436;BME280;9346;52.006;4.720;2023-02-20T11:08:39;102204.22;;;10.25;100.00
18436;BME280;9346;52.006;4.720;2023-02-20T11:11:19;102183.88;;;10.26;100.00
18436;BME280;9346;52.006;4.720;2023-02-20T11:13:47;102179.78;;;10.28;100.00
18436;BME280;9346;52.006;4.720;2023-02-20T11:16:20;102192.13;;;10.26;100.00
18436;BME280;9346;52.006;4.720;2023-02-20T11:18:55;102185.53;;;10.27;100.00
18436;BME280;9346;52.006;4.720;2023-02-20T11:21:33;102189.94;;;10.28;100.00
18436;BME280;9346;52.006;4.720;2023-02-20T11:24:17;102193.22;;;10.25;100.00
18436;BME280;9346;52.006;4.720;2023-02-20T11:26:45;102162.69;;;10.26;100.00
18436;BME280;9346;52.006;4.720;2023-02-20T11:29:17;102154.75;;;10.30;100.00
18436;BME280;9346;52.006;4.720;2023-02-20T11:31:45;102156.78;;;10.34;100.00
18436;BME280;9346;52.006;4.720;2023-02-20T11:34:16;102159.06;;;10.37;100.00
18436;BME280;9346;52.006;4.720;2023-02-20T11:36:46;102159.44;;;10.41;100.00
18436;BME280;9346;52.006;4.720;2023-02-20T11:39:20;102152.59;;;10.43;100.00
18436;BME280;9346;52.006;4.720;2023-02-20T11:41:49;102144.34;;;10.43;100.00
18436;BME280;9346;52.006;4.720;2023-02-20T11:44:23;102148.75;;;10.44;100.00
18436;BME280;9346;52.006;4.720;2023-02-20T11:47:17;102150.66;;;10.44;100.00
18436;BME280;9346;52.006;4.720;2023-02-20T11:49:45;102144.66;;;10.47;100.00
18436;BME280;9346;52.006;4.720;2023-02-20T11:52:17;102144.19;;;10.50;100.00
18436;BME280;9346;52.006;4.720;2023-02-20T11:54:47;102146.69;;;10.51;100.00
18436;BME280;9346;52.006;4.720;2023-02-20T11:57:22;102153.06;;;10.52;100.00
18436;BME280;9346;52.006;4.720;2023-02-20T12:00:08;102151.16;;;10.52;100.00
18436;BME280;9346;52.006;4.720;2023-02-20T12:02:35;102154.47;;;10.54;100.00
18436;BME280;9346;52.006;4.720;2023-02-20T12:05:08;102167.53;;;10.59;100.00
18436;BME280;9346;52.006;4.720;2023-02-20T12:07:39;102143.34;;;10.61;100.00
18436;BME280;9346;52.006;4.720;2023-02-20T12:10:32;102139.50;;;10.62;100.00
18436;BME280;9346;52.006;4.720;2023-02-20T12:13:02;102164.28;;;10.62;100.00
18436;BME280;9346;52.006;4.720;2023-02-20T12:15:30;102145.38;;;10.65;100.00
18436;BME280;9346;52.006;4.720;2023-02-20T12:18:14;102147.88;;;10.67;100.00
18436;BME280;9346;52.006;4.720;2023-02-20T12:20:49;102155.56;;;10.65;100.00
18436;BME280;9346;52.006;4.720;2023-02-20T12:23:26;102170.19;;;10.65;100.00
18436;BME280;9346;52.006;4.720;2023-02-20T12:26:13;102176.25;;;10.67;100.00
18436;BME280;9346;52.006;4.720;2023-02-20T12:28:53;102152.56;;;10.66;100.00
18436;BME280;9346;52.006;4.720;2023-02-20T12:31:41;102143.19;;;10.67;100.00
18436;BME280;9346;52.006;4.720;2023-02-20T12:37:10;102133.34;;;10.71;100.00
18436;BME280;9346;52.006;4.720;2023-02-20T12:39:48;102131.69;;;10.70;100.00
18436;BME280;9346;52.006;4.720;2023-02-20T12:42:28;102118.75;;;10.71;100.00
18436;BME280;9346;52.006;4.720;2023-02-20T12:45:12;102120.19;;;10.73;100.00
18436;BME280;9346;52.006;4.720;2023-02-20T12:47:43;102130.34;;;10.73;100.00
18436;BME280;9346;52.006;4.720;2023-02-20T12:50:41;102130.94;;;10.75;100.00
18436;BME280;9346;52.006;4.720;2023-02-20T12:53:23;102139.22;;;10.75;100.00
18436;BME280;9346;52.006;4.720;2023-02-20T12:56:03;102138.63;;;10.73;100.00
18436;BME280;9346;52.006;4.720;2023-02-20T12:58:43;102145.59;;;10.75;100.00
18436;BME280;9346;52.006;4.720;2023-02-20T13:01:14;102138.75;;;10.78;100.00
18436;BME280;9346;52.006;4.720;2023-02-20T13:03:48;102148.09;;;10.77;100.00
18436;BME280;9346;52.006;4.720;2023-02-20T13:06:24;102151.44;;;10.79;100.00
18436;BME280;9346;52.006;4.720;2023-02-20T13:09:00;102151.44;;;10.79;100.00
18436;BME280;9346;52.006;4.720;2023-02-20T13:11:33;102146.28;;;10.82;100.00
18436;BME280;9346;52.006;4.720;2023-02-20T13:14:14;102140.28;;;10.85;100.00
18436;BME280;9346;52.006;4.720;2023-02-20T13:16:46;102123.75;;;10.85;100.00
18436;BME280;9346;52.006;4.720;2023-02-20T13:19:22;102125.06;;;10.83;100.00
18436;BME280;9346;52.006;4.720;2023-02-20T13:21:52;102120.63;;;10.82;100.00
18436;BME280;9346;52.006;4.720;2023-02-20T13:24:30;102125.66;;;10.85;100.00
18436;BME280;9346;52.006;4.720;2023-02-20T13:26:58;102114.88;;;10.83;100.00